Terminal Aerodrome Forecast
Issued by NWS Billings, MT

Home | Current Version | Previous Version | Graphics & Text | Print | Product List | Glossary On
Versions: 1 2 3 4 5 6 7 8 9 10 11 12 13 14 15 16 17 18 19 20 21 22 23 24 25 26 27
000
FTUS45 KBYZ 282332
TAFMLS
TAF
KMLS 282332Z 2900/2924 33017KT P6SM SCT019 OVC100
     FM290300 31010KT P6SM SCT020 BKN100
     FM290800 VRB04KT P6SM VCFG OVC008
     FM291600 15006KT P6SM SKC=

USA.gov is the U.S. government's official web portal to all federal, state and local government web resources and services.